COA80 KEWR-LSGG
Flight info
| Callsign | COA80 |
|---|---|
| Flight time | N/A |
| Altitude | 37000 |
| Route | MERIT DCT HFD DCT PUT DCT BOS DCT WHALE DCT NANSO/M084F370 N59E RAFIN/M084F390 DCT 45N050W 47N040W 49N030W 50N020W DCT DINIM DCT ELSOX/M084F410 DCT GAPLI/N0476F410 DCT LIZAD DCT JSY DCT ARSUK DCT RESMI DCT PEKIM/N0477F310 DCT PILUL/N0446F270 DCT PIMUP DCT PIXIS DCT PIBAT/N0419F230 DCT LUSAR |
| Aircraft | B772/H-SDE2E3FGHIJ5LORVWXY/LB1D1 |
Departure
| Time | 2026-04-25 16:20 |
|---|---|
| Airport | Newark Liberty International Airport (KEWR) |
Arrival
| Time | N/A |
|---|---|
| Airport | Geneva International Airport (LSGG) |
| Time | Latitude | Longitude | Altitude | Speed | Heading |
|---|---|---|---|---|---|
| 2026-04-25 15:21 | 40.69402 | -74.17361 | 26 ft | 0 kts | 13° |
| 2026-04-25 16:08 | 40.69399 | -74.17362 | 26 ft | 3 kts | 13° |
| 2026-04-25 16:08 | 40.69374 | -74.17372 | 26 ft | 4 kts | 25° |
| 2026-04-25 16:08 | 40.69352 | -74.17390 | 25 ft | 4 kts | 45° |
| 2026-04-25 16:08 | 40.69339 | -74.17417 | 26 ft | 4 kts | 92° |
| 2026-04-25 16:09 | 40.69337 | -74.17406 | 26 ft | 3 kts | 101° |
| 2026-04-25 16:09 | 40.69336 | -74.17401 | 26 ft | 0 kts | 103° |
| 2026-04-25 16:13 | 40.69336 | -74.17399 | 26 ft | 2 kts | 103° |
| 2026-04-25 16:13 | 40.69316 | -74.17324 | 26 ft | 19 kts | 115° |
| 2026-04-25 16:13 | 40.69261 | -74.17200 | 26 ft | 10 kts | 120° |
| 2026-04-25 16:13 | 40.69206 | -74.17162 | 26 ft | 10 kts | 192° |
| 2026-04-25 16:14 | 40.69144 | -74.17201 | 30 ft | 10 kts | 208° |
| 2026-04-25 16:14 | 40.69084 | -74.17243 | 31 ft | 10 kts | 207° |
| 2026-04-25 16:14 | 40.69022 | -74.17284 | 26 ft | 11 kts | 206° |
| 2026-04-25 16:14 | 40.68938 | -74.17337 | 26 ft | 15 kts | 205° |
| 2026-04-25 16:15 | 40.68835 | -74.17401 | 26 ft | 18 kts | 205° |
| 2026-04-25 16:15 | 40.68717 | -74.17474 | 27 ft | 19 kts | 205° |
| 2026-04-25 16:15 | 40.68599 | -74.17551 | 27 ft | 19 kts | 206° |
| 2026-04-25 16:15 | 40.68481 | -74.17627 | 27 ft | 20 kts | 206° |
| 2026-04-25 16:16 | 40.68338 | -74.17718 | 26 ft | 26 kts | 205° |
| 2026-04-25 16:16 | 40.68184 | -74.17814 | 26 ft | 23 kts | 205° |
| 2026-04-25 16:16 | 40.68065 | -74.17889 | 26 ft | 16 kts | 206° |
| 2026-04-25 16:16 | 40.67966 | -74.17952 | 27 ft | 16 kts | 206° |
| 2026-04-25 16:17 | 40.67868 | -74.18016 | 27 ft | 16 kts | 206° |
| 2026-04-25 16:17 | 40.67770 | -74.18079 | 27 ft | 16 kts | 205° |
| 2026-04-25 16:17 | 40.67686 | -74.18129 | 27 ft | 11 kts | 194° |
| 2026-04-25 16:17 | 40.67625 | -74.18086 | 27 ft | 10 kts | 129° |
| 2026-04-25 16:18 | 40.67611 | -74.18065 | 25 ft | 0 kts | 130° |
| 2026-04-25 16:19 | 40.67596 | -74.18041 | 27 ft | 11 kts | 130° |
| 2026-04-25 16:19 | 40.67560 | -74.17964 | 27 ft | 8 kts | 108° |
| 2026-04-25 16:19 | 40.67575 | -74.17923 | 26 ft | 5 kts | 26° |
| 2026-04-25 16:20 | 40.68019 | -74.17640 | 29 ft | 91 kts | 25° |
| 2026-04-25 16:20 | 40.68775 | -74.17153 | 28 ft | 149 kts | 25° |
| 2026-04-25 16:20 | 40.70827 | -74.15846 | 1012 ft | 167 kts | 34° |
| 2026-04-25 16:21 | 40.71774 | -74.14917 | 1378 ft | 182 kts | 48° |
| 2026-04-25 16:21 | 40.72729 | -74.13743 | 1807 ft | 195 kts | 40° |
| 2026-04-25 16:21 | 40.74005 | -74.12886 | 2020 ft | 217 kts | 29° |
| 2026-04-25 16:21 | 40.75452 | -74.12046 | 2265 ft | 238 kts | 28° |
| 2026-04-25 16:22 | 40.77037 | -74.11128 | 2557 ft | 256 kts | 28° |
| 2026-04-25 16:22 | 40.78693 | -74.10154 | 3039 ft | 265 kts | 28° |
| 2026-04-25 16:22 | 40.80396 | -74.09156 | 3623 ft | 271 kts | 27° |
| 2026-04-25 16:22 | 40.82000 | -74.07892 | 4156 ft | 269 kts | 46° |
| 2026-04-25 16:23 | 40.83100 | -74.05902 | 4679 ft | 268 kts | 70° |
| 2026-04-25 16:23 | 40.83718 | -74.03552 | 5138 ft | 273 kts | 77° |
| 2026-04-25 16:23 | 40.84224 | -74.01113 | 5648 ft | 280 kts | 77° |
| 2026-04-25 16:23 | 40.84693 | -73.98594 | 6225 ft | 284 kts | 76° |
| 2026-04-25 16:24 | 40.85106 | -73.96052 | 6816 ft | 286 kts | 77° |
| 2026-04-25 16:24 | 40.85505 | -73.93460 | 7284 ft | 291 kts | 77° |
| 2026-04-25 16:24 | 40.85904 | -73.90843 | 7885 ft | 291 kts | 77° |
| 2026-04-25 16:24 | 40.86303 | -73.88207 | 8398 ft | 294 kts | 77° |
| 2026-04-25 16:25 | 40.86746 | -73.85566 | 8878 ft | 293 kts | 69° |
| 2026-04-25 16:25 | 40.87365 | -73.83992 | 9051 ft | 294 kts | 48° |
| 2026-04-25 16:25 | 40.89338 | -73.81525 | 9592 ft | 294 kts | 39° |
| 2026-04-25 16:25 | 40.90850 | -73.79706 | 10126 ft | 295 kts | 40° |
| 2026-04-25 16:26 | 40.92368 | -73.77804 | 10345 ft | 309 kts | 41° |
| 2026-04-25 16:26 | 40.93942 | -73.75768 | 10445 ft | 324 kts | 42° |
| 2026-04-25 16:26 | 40.95574 | -73.73601 | 10549 ft | 340 kts | 43° |
| 2026-04-25 16:26 | 40.97273 | -73.71300 | 10686 ft | 357 kts | 43° |
| 2026-04-25 16:27 | 40.99037 | -73.68881 | 10854 ft | 373 kts | 44° |
| 2026-04-25 16:27 | 41.00859 | -73.66358 | 11210 ft | 385 kts | 44° |
| 2026-04-25 16:27 | 41.02694 | -73.63801 | 11773 ft | 390 kts | 44° |
| 2026-04-25 16:27 | 41.04590 | -73.61150 | 12425 ft | 394 kts | 43° |
| 2026-04-25 16:28 | 41.06483 | -73.58499 | 13008 ft | 398 kts | 43° |
| 2026-04-25 16:28 | 41.08393 | -73.55822 | 13589 ft | 402 kts | 43° |
| 2026-04-25 16:28 | 41.10324 | -73.53113 | 14115 ft | 406 kts | 43° |
| 2026-04-25 16:28 | 41.12276 | -73.50372 | 14595 ft | 410 kts | 43° |
| 2026-04-25 16:29 | 41.14217 | -73.47645 | 15068 ft | 414 kts | 43° |
| 2026-04-25 16:29 | 41.16203 | -73.44852 | 15544 ft | 418 kts | 43° |
| 2026-04-25 16:29 | 41.18205 | -73.42035 | 15998 ft | 421 kts | 43° |
| 2026-04-25 16:29 | 41.20224 | -73.39191 | 16466 ft | 424 kts | 43° |
| 2026-04-25 16:30 | 41.22254 | -73.36328 | 16927 ft | 427 kts | 43° |
| 2026-04-25 16:30 | 41.24300 | -73.33439 | 17318 ft | 432 kts | 43° |
| 2026-04-25 16:30 | 41.26373 | -73.30511 | 17683 ft | 437 kts | 43° |
| 2026-04-25 16:30 | 41.28469 | -73.27548 | 18043 ft | 442 kts | 42° |
| 2026-04-25 16:31 | 41.30587 | -73.24549 | 18363 ft | 448 kts | 42° |
| 2026-04-25 16:31 | 41.32723 | -73.21519 | 18733 ft | 451 kts | 42° |
| 2026-04-25 16:31 | 41.34870 | -73.18471 | 19168 ft | 451 kts | 42° |
| 2026-04-25 16:31 | 41.36999 | -73.15408 | 19638 ft | 452 kts | 44° |
| 2026-04-25 16:32 | 41.38959 | -73.12105 | 20003 ft | 459 kts | 50° |
| 2026-04-25 16:32 | 41.40654 | -73.08464 | 20367 ft | 464 kts | 55° |
| 2026-04-25 16:32 | 41.42267 | -73.04734 | 20755 ft | 465 kts | 55° |
| 2026-04-25 16:32 | 41.43885 | -73.00992 | 21158 ft | 467 kts | 55° |
| 2026-04-25 16:33 | 41.45516 | -72.97238 | 21576 ft | 468 kts | 54° |
| 2026-04-25 16:33 | 41.47155 | -72.93488 | 22007 ft | 469 kts | 54° |
| 2026-04-25 16:33 | 41.48807 | -72.89721 | 22441 ft | 470 kts | 54° |
| 2026-04-25 16:33 | 41.50462 | -72.85956 | 22824 ft | 472 kts | 53° |
| 2026-04-25 16:34 | 41.52128 | -72.82169 | 23175 ft | 475 kts | 53° |
| 2026-04-25 16:34 | 41.53803 | -72.78355 | 23531 ft | 477 kts | 53° |
| 2026-04-25 16:34 | 41.55484 | -72.74521 | 23865 ft | 480 kts | 53° |
| 2026-04-25 16:34 | 41.57171 | -72.70666 | 24186 ft | 482 kts | 53° |
| 2026-04-25 16:35 | 41.58857 | -72.66805 | 24509 ft | 483 kts | 53° |
| 2026-04-25 16:35 | 41.60556 | -72.62911 | 24824 ft | 485 kts | 53° |
| 2026-04-25 16:35 | 41.62254 | -72.59014 | 25140 ft | 487 kts | 53° |
| 2026-04-25 16:35 | 41.63964 | -72.55087 | 25359 ft | 491 kts | 53° |
| 2026-04-25 16:36 | 41.65703 | -72.51147 | 25656 ft | 492 kts | 52° |
| 2026-04-25 16:36 | 41.66278 | -72.49866 | 25765 ft | 493 kts | 52° |
| 2026-04-25 16:36 | 41.69253 | -72.43295 | 26312 ft | 495 kts | 52° |
| 2026-04-25 16:36 | 41.71045 | -72.39347 | 26614 ft | 497 kts | 52° |
| 2026-04-25 16:37 | 41.72839 | -72.35382 | 26939 ft | 499 kts | 52° |
| 2026-04-25 16:37 | 41.74636 | -72.31395 | 27240 ft | 501 kts | 52° |
| 2026-04-25 16:37 | 41.76434 | -72.27388 | 27552 ft | 502 kts | 52° |
| 2026-04-25 16:37 | 41.78234 | -72.23368 | 27871 ft | 505 kts | 51° |
| 2026-04-25 16:38 | 41.80042 | -72.19325 | 28134 ft | 507 kts | 51° |
| 2026-04-25 16:38 | 41.81855 | -72.15262 | 28429 ft | 508 kts | 51° |
| 2026-04-25 16:38 | 41.83649 | -72.11237 | 28713 ft | 510 kts | 51° |
| 2026-04-25 16:38 | 41.85496 | -72.07089 | 28972 ft | 512 kts | 51° |
| 2026-04-25 16:39 | 41.87328 | -72.02971 | 29081 ft | 516 kts | 51° |
| 2026-04-25 16:39 | 41.90993 | -71.94706 | 29128 ft | 513 kts | 51° |
| 2026-04-25 16:40 | 41.94622 | -71.86501 | 29144 ft | 508 kts | 51° |
| 2026-04-25 16:40 | 41.98289 | -71.78442 | 29151 ft | 505 kts | 49° |
| 2026-04-25 16:41 | 42.02116 | -71.70503 | 29140 ft | 507 kts | 48° |
| 2026-04-25 16:41 | 42.07872 | -71.58491 | 29145 ft | 511 kts | 49° |
| 2026-04-25 16:42 | 42.11663 | -71.50462 | 29161 ft | 511 kts | 49° |
| 2026-04-25 16:42 | 42.15461 | -71.42386 | 29150 ft | 509 kts | 49° |
| 2026-04-25 16:43 | 42.19242 | -71.34333 | 29131 ft | 508 kts | 49° |
| 2026-04-25 16:43 | 42.23009 | -71.26298 | 29150 ft | 507 kts | 49° |
| 2026-04-25 16:44 | 42.26782 | -71.18226 | 29181 ft | 508 kts | 49° |
| 2026-04-25 16:44 | 42.30548 | -71.10147 | 29158 ft | 509 kts | 49° |
| 2026-04-25 16:45 | 42.34271 | -71.02009 | 29158 ft | 513 kts | 52° |
| 2026-04-25 16:45 | 42.37164 | -70.93056 | 29150 ft | 528 kts | 65° |
| 2026-04-25 16:46 | 42.38867 | -70.85108 | 29176 ft | 529 kts | 66° |
| 2026-04-25 16:46 | 42.40544 | -70.77067 | 29154 ft | 531 kts | 66° |
| 2026-04-25 16:47 | 42.42906 | -70.65917 | 29151 ft | 532 kts | 65° |
| 2026-04-25 16:47 | 42.45000 | -70.56195 | 29421 ft | 542 kts | 65° |
| 2026-04-25 16:48 | 42.46052 | -70.51292 | 29795 ft | 541 kts | 65° |
| 2026-04-25 16:48 | 42.47094 | -70.46408 | 30270 ft | 538 kts | 65° |
| 2026-04-25 16:48 | 42.48129 | -70.41541 | 30674 ft | 536 kts | 65° |
| 2026-04-25 16:48 | 42.49155 | -70.36701 | 31059 ft | 533 kts | 65° |
| 2026-04-25 16:49 | 42.50176 | -70.31878 | 31453 ft | 531 kts | 64° |
| 2026-04-25 16:49 | 42.51191 | -70.27078 | 31843 ft | 529 kts | 64° |
| 2026-04-25 16:49 | 42.52202 | -70.22288 | 32232 ft | 527 kts | 64° |
| 2026-04-25 16:49 | 42.53206 | -70.17525 | 32712 ft | 523 kts | 64° |
| 2026-04-25 16:50 | 42.54196 | -70.12803 | 33236 ft | 518 kts | 64° |
| 2026-04-25 16:50 | 42.55177 | -70.08116 | 33687 ft | 515 kts | 64° |
| 2026-04-25 16:50 | 42.56154 | -70.03452 | 34065 ft | 513 kts | 64° |
| 2026-04-25 16:50 | 42.57126 | -69.98801 | 34357 ft | 512 kts | 64° |
| 2026-04-25 16:51 | 42.58097 | -69.94155 | 34605 ft | 512 kts | 64° |
| 2026-04-25 16:51 | 42.59066 | -69.89506 | 34837 ft | 512 kts | 64° |
| 2026-04-25 16:51 | 42.60033 | -69.84856 | 35148 ft | 511 kts | 64° |
| 2026-04-25 16:51 | 42.60668 | -69.81789 | 35388 ft | 509 kts | 64° |
| 2026-04-25 16:52 | 42.61941 | -69.75614 | 35819 ft | 507 kts | 65° |
| 2026-04-25 16:52 | 42.62890 | -69.71007 | 36056 ft | 507 kts | 65° |
| 2026-04-25 16:52 | 42.63839 | -69.66394 | 36257 ft | 507 kts | 65° |
| 2026-04-25 16:52 | 42.64785 | -69.61784 | 36495 ft | 507 kts | 65° |
| 2026-04-25 16:53 | 42.66668 | -69.52570 | 37016 ft | 505 kts | 65° |
| 2026-04-25 16:53 | 42.67608 | -69.47960 | 37105 ft | 507 kts | 65° |
| 2026-04-25 16:54 | 42.69489 | -69.38703 | 37121 ft | 508 kts | 65° |
| 2026-04-25 16:54 | 42.71350 | -69.29473 | 37142 ft | 504 kts | 66° |
| 2026-04-25 16:55 | 42.73182 | -69.20360 | 37124 ft | 501 kts | 66° |
| 2026-04-25 16:55 | 42.75025 | -69.11157 | 37125 ft | 501 kts | 66° |
| 2026-04-25 16:56 | 42.76849 | -69.02016 | 37128 ft | 501 kts | 66° |
| 2026-04-25 16:56 | 42.78658 | -68.92908 | 37125 ft | 502 kts | 66° |
| 2026-04-25 16:57 | 42.80477 | -68.83703 | 37146 ft | 505 kts | 66° |
| 2026-04-25 16:57 | 42.82297 | -68.74451 | 37124 ft | 507 kts | 66° |
| 2026-04-25 16:58 | 42.84114 | -68.65158 | 37117 ft | 508 kts | 66° |
| 2026-04-25 16:58 | 42.85929 | -68.55833 | 37114 ft | 509 kts | 66° |
| 2026-04-25 16:59 | 42.87738 | -68.46495 | 37111 ft | 510 kts | 67° |
| 2026-04-25 16:59 | 42.89540 | -68.37145 | 37114 ft | 510 kts | 67° |
| 2026-04-25 17:00 | 42.91336 | -68.27788 | 37097 ft | 509 kts | 67° |
| 2026-04-25 17:00 | 42.93120 | -68.18443 | 37109 ft | 509 kts | 67° |
| 2026-04-25 17:01 | 42.94900 | -68.09085 | 37114 ft | 510 kts | 68° |
| 2026-04-25 17:01 | 42.96673 | -67.99716 | 37105 ft | 510 kts | 68° |
| 2026-04-25 17:02 | 42.98440 | -67.90324 | 37101 ft | 510 kts | 68° |
| 2026-04-25 17:02 | 43.00198 | -67.80940 | 37118 ft | 510 kts | 68° |
| 2026-04-25 17:03 | 43.01950 | -67.71539 | 37101 ft | 510 kts | 68° |
| 2026-04-25 17:03 | 43.03692 | -67.62146 | 37101 ft | 510 kts | 68° |
| 2026-04-25 17:04 | 43.05426 | -67.52749 | 37094 ft | 510 kts | 68° |
| 2026-04-25 17:04 | 43.07150 | -67.43357 | 37096 ft | 509 kts | 68° |
| 2026-04-25 17:05 | 43.08868 | -67.33955 | 37120 ft | 509 kts | 69° |
| 2026-04-25 17:05 | 43.11430 | -67.19845 | 37092 ft | 509 kts | 69° |
| 2026-04-25 17:06 | 43.13108 | -67.10547 | 37080 ft | 508 kts | 69° |
| 2026-04-25 17:06 | 43.14920 | -67.01236 | 37072 ft | 501 kts | 64° |
| 2026-04-25 17:07 | 43.17694 | -66.92616 | 37070 ft | 490 kts | 54° |
| 2026-04-25 17:07 | 43.20887 | -66.84389 | 37083 ft | 490 kts | 55° |
| 2026-04-25 17:08 | 43.24074 | -66.76117 | 37071 ft | 491 kts | 56° |
| 2026-04-25 17:08 | 43.27232 | -66.67812 | 37073 ft | 491 kts | 56° |
| 2026-04-25 17:09 | 43.30377 | -66.59478 | 37057 ft | 492 kts | 56° |
| 2026-04-25 17:09 | 43.33516 | -66.51129 | 37059 ft | 493 kts | 57° |
| 2026-04-25 17:10 | 43.36653 | -66.42759 | 37051 ft | 493 kts | 57° |
| 2026-04-25 17:10 | 43.39783 | -66.34386 | 37043 ft | 492 kts | 57° |
| 2026-04-25 17:11 | 43.42907 | -66.26005 | 37035 ft | 492 kts | 57° |
| 2026-04-25 17:11 | 43.46026 | -66.17613 | 37032 ft | 492 kts | 57° |
| 2026-04-25 17:12 | 43.49119 | -66.09269 | 37037 ft | 492 kts | 58° |
| 2026-04-25 17:12 | 43.52224 | -66.00868 | 37018 ft | 492 kts | 58° |
| 2026-04-25 17:13 | 43.54298 | -65.95239 | 37013 ft | 492 kts | 58° |
| 2026-04-25 17:13 | 43.58410 | -65.84046 | 37008 ft | 491 kts | 58° |
| 2026-04-25 17:14 | 43.61490 | -65.75636 | 36999 ft | 491 kts | 58° |
| 2026-04-25 17:14 | 43.64562 | -65.67219 | 37001 ft | 491 kts | 58° |
| 2026-04-25 17:15 | 43.67624 | -65.58807 | 36986 ft | 490 kts | 58° |
| 2026-04-25 17:15 | 43.70680 | -65.50387 | 36993 ft | 490 kts | 59° |
| 2026-04-25 17:16 | 43.73731 | -65.41950 | 36981 ft | 490 kts | 59° |
| 2026-04-25 17:16 | 43.76772 | -65.33517 | 36981 ft | 490 kts | 59° |
| 2026-04-25 17:17 | 43.79805 | -65.25082 | 36978 ft | 490 kts | 59° |
| 2026-04-25 17:17 | 43.82835 | -65.16631 | 36982 ft | 490 kts | 59° |
| 2026-04-25 17:18 | 43.85859 | -65.08167 | 36975 ft | 490 kts | 59° |
| 2026-04-25 17:18 | 43.88878 | -64.99691 | 36976 ft | 490 kts | 59° |
| 2026-04-25 17:19 | 43.91890 | -64.91209 | 36989 ft | 491 kts | 59° |
| 2026-04-25 17:19 | 43.94901 | -64.82706 | 36973 ft | 491 kts | 60° |
| 2026-04-25 17:20 | 43.97903 | -64.74200 | 36974 ft | 491 kts | 60° |
| 2026-04-25 17:20 | 44.00899 | -64.65683 | 36973 ft | 491 kts | 60° |
| 2026-04-25 17:21 | 44.03871 | -64.57208 | 36963 ft | 491 kts | 60° |
| 2026-04-25 17:21 | 44.06854 | -64.48677 | 36967 ft | 491 kts | 60° |
| 2026-04-25 17:22 | 44.08845 | -64.42968 | 36954 ft | 490 kts | 60° |
| 2026-04-25 17:22 | 44.12813 | -64.31552 | 36971 ft | 490 kts | 60° |
| 2026-04-25 17:23 | 44.15771 | -64.23013 | 36940 ft | 489 kts | 60° |
| 2026-04-25 17:23 | 44.18695 | -64.14541 | 36946 ft | 488 kts | 60° |
| 2026-04-25 17:24 | 44.21626 | -64.06025 | 36939 ft | 486 kts | 61° |
| 2026-04-25 17:24 | 44.24543 | -63.97523 | 36932 ft | 485 kts | 61° |
| 2026-04-25 17:25 | 44.27446 | -63.89036 | 36914 ft | 484 kts | 61° |
| 2026-04-25 17:25 | 44.30338 | -63.80555 | 36939 ft | 484 kts | 61° |
| 2026-04-25 17:26 | 44.33222 | -63.72068 | 36919 ft | 483 kts | 61° |
| 2026-04-25 17:26 | 44.36099 | -63.63578 | 36921 ft | 484 kts | 61° |
| 2026-04-25 17:27 | 44.38971 | -63.55074 | 36911 ft | 484 kts | 61° |
| 2026-04-25 17:27 | 44.40887 | -63.49384 | 36913 ft | 484 kts | 61° |
| 2026-04-25 17:28 | 44.44699 | -63.38032 | 36907 ft | 485 kts | 61° |
| 2026-04-25 17:28 | 44.47556 | -63.29490 | 36901 ft | 485 kts | 61° |
| 2026-04-25 17:29 | 44.50411 | -63.20929 | 36903 ft | 485 kts | 61° |
| 2026-04-25 17:29 | 44.53258 | -63.12360 | 36902 ft | 485 kts | 61° |
| 2026-04-25 17:30 | 44.55622 | -63.05227 | 36912 ft | 486 kts | 61° |
| 2026-04-25 17:30 | 44.58462 | -62.96631 | 36892 ft | 486 kts | 62° |
| 2026-04-25 17:31 | 44.61757 | -62.86623 | 36876 ft | 486 kts | 62° |
| 2026-04-25 17:31 | 44.64584 | -62.78006 | 36877 ft | 486 kts | 62° |
| 2026-04-25 17:32 | 44.66948 | -62.70777 | 36886 ft | 486 kts | 62° |
| 2026-04-25 17:32 | 44.69748 | -62.62193 | 36865 ft | 486 kts | 62° |
| 2026-04-25 17:33 | 44.72556 | -62.53552 | 36858 ft | 486 kts | 62° |
| 2026-04-25 17:33 | 44.75360 | -62.44897 | 36861 ft | 486 kts | 62° |
| 2026-04-25 17:34 | 44.78156 | -62.36237 | 36867 ft | 486 kts | 62° |
| 2026-04-25 17:34 | 44.80948 | -62.27562 | 36848 ft | 487 kts | 62° |
| 2026-04-25 17:35 | 44.83736 | -62.18871 | 36842 ft | 487 kts | 62° |
| 2026-04-25 17:35 | 44.86519 | -62.10167 | 36845 ft | 487 kts | 62° |
| 2026-04-25 17:36 | 44.89293 | -62.01460 | 36855 ft | 487 kts | 62° |
| 2026-04-25 17:36 | 44.92064 | -61.92733 | 36842 ft | 487 kts | 62° |
| 2026-04-25 17:37 | 44.94830 | -61.83995 | 36828 ft | 487 kts | 62° |
| 2026-04-25 17:37 | 44.97589 | -61.75249 | 36829 ft | 487 kts | 63° |
| 2026-04-25 17:38 | 44.99874 | -61.67980 | 36826 ft | 487 kts | 63° |
| 2026-04-25 17:38 | 45.03081 | -61.57746 | 36815 ft | 487 kts | 62° |
| 2026-04-25 17:39 | 45.05816 | -61.48978 | 36816 ft | 487 kts | 62° |
| 2026-04-25 17:39 | 45.08544 | -61.40214 | 36814 ft | 487 kts | 63° |
| 2026-04-25 17:40 | 45.11267 | -61.31438 | 36802 ft | 487 kts | 63° |
| 2026-04-25 17:40 | 45.13980 | -61.22662 | 36801 ft | 487 kts | 62° |
| 2026-04-25 17:41 | 45.16689 | -61.13865 | 36796 ft | 487 kts | 63° |
| 2026-04-25 17:41 | 45.19392 | -61.05059 | 36786 ft | 487 kts | 63° |
| 2026-04-25 17:42 | 45.22090 | -60.96239 | 36778 ft | 488 kts | 63° |
| 2026-04-25 17:42 | 45.24782 | -60.87405 | 36778 ft | 488 kts | 63° |
| 2026-04-25 17:43 | 45.27470 | -60.78555 | 36757 ft | 488 kts | 63° |
| 2026-04-25 17:43 | 45.30146 | -60.69715 | 36750 ft | 488 kts | 63° |
| 2026-04-25 17:44 | 45.32820 | -60.60847 | 36750 ft | 488 kts | 63° |
| 2026-04-25 17:44 | 45.35484 | -60.51983 | 36755 ft | 487 kts | 64° |
| 2026-04-25 17:45 | 45.37691 | -60.44617 | 36752 ft | 487 kts | 64° |
| 2026-04-25 17:45 | 45.40790 | -60.34238 | 36736 ft | 487 kts | 64° |
| 2026-04-25 17:46 | 45.43427 | -60.25375 | 36744 ft | 492 kts | 64° |
| 2026-04-25 17:46 | 45.46118 | -60.16298 | 36738 ft | 497 kts | 64° |
| 2026-04-25 17:47 | 45.48806 | -60.07195 | 36733 ft | 499 kts | 64° |
| 2026-04-25 17:47 | 45.51492 | -59.98060 | 36723 ft | 500 kts | 64° |
| 2026-04-25 17:48 | 45.55484 | -59.84424 | 36718 ft | 498 kts | 64° |
| 2026-04-25 17:49 | 45.58138 | -59.75318 | 36738 ft | 496 kts | 64° |
| 2026-04-25 17:49 | 45.60774 | -59.66239 | 36713 ft | 494 kts | 64° |
| 2026-04-25 17:50 | 45.63396 | -59.57180 | 36706 ft | 493 kts | 64° |
| 2026-04-25 17:50 | 45.66002 | -59.48142 | 36700 ft | 491 kts | 64° |
| 2026-04-25 17:51 | 45.68598 | -59.39108 | 36697 ft | 491 kts | 64° |
| 2026-04-25 17:51 | 45.71181 | -59.30081 | 36693 ft | 491 kts | 65° |
| 2026-04-25 17:52 | 45.73761 | -59.21036 | 36685 ft | 491 kts | 64° |
| 2026-04-25 17:52 | 45.76336 | -59.11969 | 36685 ft | 491 kts | 64° |
| 2026-04-25 17:53 | 45.78889 | -59.02952 | 36684 ft | 492 kts | 64° |
| 2026-04-25 17:53 | 45.81457 | -58.93851 | 36674 ft | 493 kts | 65° |
| 2026-04-25 17:54 | 45.84021 | -58.84724 | 36665 ft | 494 kts | 65° |
| 2026-04-25 17:54 | 45.86596 | -58.75522 | 36667 ft | 494 kts | 65° |
| 2026-04-25 17:55 | 45.89132 | -58.66427 | 36656 ft | 494 kts | 65° |
| 2026-04-25 17:55 | 45.91679 | -58.57257 | 36662 ft | 494 kts | 65° |
| 2026-04-25 17:56 | 45.94219 | -58.48081 | 36647 ft | 494 kts | 65° |
| 2026-04-25 17:56 | 45.96751 | -58.38895 | 36653 ft | 494 kts | 66° |
| 2026-04-25 17:57 | 45.99274 | -58.29710 | 36641 ft | 494 kts | 66° |
| 2026-04-25 17:57 | 46.01790 | -58.20511 | 36632 ft | 494 kts | 65° |
| 2026-04-25 17:58 | 46.04295 | -58.11321 | 36628 ft | 493 kts | 66° |
| 2026-04-25 17:58 | 46.06792 | -58.02119 | 36619 ft | 493 kts | 66° |
| 2026-04-25 17:59 | 46.09277 | -57.92933 | 36615 ft | 492 kts | 66° |
| 2026-04-25 17:59 | 46.11754 | -57.83739 | 36614 ft | 492 kts | 66° |
| 2026-04-25 18:00 | 46.14222 | -57.74541 | 36614 ft | 492 kts | 66° |
| 2026-04-25 18:00 | 46.16685 | -57.65326 | 36613 ft | 493 kts | 66° |
| 2026-04-25 18:01 | 46.19144 | -57.56094 | 36602 ft | 493 kts | 66° |
| 2026-04-25 18:01 | 46.21596 | -57.46848 | 36590 ft | 493 kts | 66° |
| 2026-04-25 18:02 | 46.24027 | -57.37647 | 36585 ft | 493 kts | 66° |
| 2026-04-25 18:02 | 46.26465 | -57.28380 | 36587 ft | 494 kts | 67° |
| 2026-04-25 18:03 | 46.28901 | -57.19086 | 36571 ft | 494 kts | 67° |
| 2026-04-25 18:03 | 46.31328 | -57.09788 | 36578 ft | 494 kts | 67° |
| 2026-04-25 18:04 | 46.33747 | -57.00485 | 36573 ft | 494 kts | 67° |
| 2026-04-25 18:04 | 46.36159 | -56.91169 | 36569 ft | 494 kts | 67° |
| 2026-04-25 18:05 | 46.38565 | -56.81845 | 36559 ft | 494 kts | 67° |
| 2026-04-25 18:05 | 46.40960 | -56.72520 | 36547 ft | 494 kts | 67° |
| 2026-04-25 18:06 | 46.43348 | -56.63188 | 36534 ft | 494 kts | 67° |
| 2026-04-25 18:06 | 46.45726 | -56.53854 | 36540 ft | 493 kts | 67° |
| 2026-04-25 18:07 | 46.48097 | -56.44514 | 36511 ft | 493 kts | 67° |
| 2026-04-25 18:07 | 46.50458 | -56.35173 | 36524 ft | 493 kts | 68° |
| 2026-04-25 18:08 | 46.52811 | -56.25824 | 36512 ft | 493 kts | 68° |
| 2026-04-25 18:08 | 46.55156 | -56.16467 | 36501 ft | 493 kts | 68° |
| 2026-04-25 18:09 | 46.57493 | -56.07106 | 36503 ft | 493 kts | 68° |
| 2026-04-25 18:09 | 46.59825 | -55.97728 | 36498 ft | 493 kts | 68° |
| 2026-04-25 18:10 | 46.62151 | -55.88332 | 36504 ft | 494 kts | 68° |
| 2026-04-25 18:10 | 46.64453 | -55.78996 | 36492 ft | 494 kts | 68° |
| 2026-04-25 18:11 | 46.66763 | -55.69588 | 36488 ft | 493 kts | 68° |
| 2026-04-25 18:11 | 46.67908 | -55.64906 | 36321 ft | 490 kts | 68° |
| 2026-04-25 18:11 | 46.69048 | -55.60238 | 35970 ft | 490 kts | 68° |
| 2026-04-25 18:11 | 46.70196 | -55.55534 | 35696 ft | 495 kts | 68° |
| 2026-04-25 18:12 | 46.71342 | -55.50823 | 35560 ft | 491 kts | 68° |
| 2026-04-25 18:12 | 46.72479 | -55.46136 | 35194 ft | 491 kts | 68° |
| 2026-04-25 18:12 | 46.73620 | -55.41427 | 34749 ft | 494 kts | 68° |
| 2026-04-25 18:12 | 46.74763 | -55.36699 | 34406 ft | 494 kts | 68° |
| 2026-04-25 18:13 | 46.75903 | -55.31972 | 34121 ft | 493 kts | 68° |
| 2026-04-25 18:13 | 46.77036 | -55.27262 | 33851 ft | 492 kts | 68° |
| 2026-04-25 18:13 | 46.78165 | -55.22557 | 33521 ft | 491 kts | 68° |
| 2026-04-25 18:14 | 46.80416 | -55.13154 | 32615 ft | 491 kts | 68° |
| 2026-04-25 18:14 | 46.81539 | -55.08450 | 32152 ft | 490 kts | 68° |
| 2026-04-25 18:14 | 46.82658 | -55.03752 | 31653 ft | 490 kts | 68° |
| 2026-04-25 18:14 | 46.83774 | -54.99052 | 31139 ft | 489 kts | 68° |
| 2026-04-25 18:15 | 46.84888 | -54.94354 | 30582 ft | 489 kts | 68° |
| 2026-04-25 18:15 | 46.85999 | -54.89660 | 30030 ft | 489 kts | 68° |
| 2026-04-25 18:15 | 46.87103 | -54.84979 | 29555 ft | 486 kts | 68° |
| 2026-04-25 18:15 | 46.88200 | -54.80323 | 28878 ft | 485 kts | 68° |
| 2026-04-25 18:16 | 46.89298 | -54.75655 | 28569 ft | 487 kts | 68° |
| 2026-04-25 18:16 | 46.90402 | -54.70953 | 28440 ft | 490 kts | 68° |
| 2026-04-25 18:17 | 46.93704 | -54.56818 | 28425 ft | 489 kts | 68° |
| 2026-04-25 18:17 | 46.95880 | -54.47450 | 28425 ft | 489 kts | 68° |
| 2026-04-25 18:18 | 46.98059 | -54.38028 | 28420 ft | 489 kts | 68° |
| 2026-04-25 18:18 | 47.00229 | -54.28601 | 28412 ft | 488 kts | 68° |
| 2026-04-25 18:19 | 47.02039 | -54.20710 | 28410 ft | 488 kts | 68° |
| 2026-04-25 18:19 | 47.04178 | -54.11349 | 28404 ft | 487 kts | 68° |
| 2026-04-25 18:20 | 47.06321 | -54.01927 | 28417 ft | 487 kts | 68° |
| 2026-04-25 18:20 | 47.08454 | -53.92512 | 28396 ft | 486 kts | 68° |
| 2026-04-25 18:21 | 47.10575 | -53.83098 | 28394 ft | 485 kts | 68° |
| 2026-04-25 18:21 | 47.12685 | -53.73696 | 28388 ft | 484 kts | 68° |
| 2026-04-25 18:22 | 47.14783 | -53.64310 | 28386 ft | 483 kts | 68° |
| 2026-04-25 18:22 | 47.16870 | -53.54924 | 28389 ft | 483 kts | 68° |
| 2026-04-25 18:23 | 47.18947 | -53.45547 | 28376 ft | 483 kts | 68° |
| 2026-04-25 18:23 | 47.21018 | -53.36155 | 28374 ft | 482 kts | 68° |
| 2026-04-25 18:24 | 47.23077 | -53.26771 | 28381 ft | 482 kts | 68° |
| 2026-04-25 18:24 | 47.25130 | -53.17387 | 28353 ft | 482 kts | 68° |
| 2026-04-25 18:25 | 47.27172 | -53.07994 | 28361 ft | 481 kts | 68° |
| 2026-04-25 18:25 | 47.29203 | -52.98612 | 28349 ft | 481 kts | 68° |
| 2026-04-25 18:26 | 47.31226 | -52.89227 | 28363 ft | 480 kts | 68° |
| 2026-04-25 18:26 | 47.33240 | -52.79842 | 28357 ft | 480 kts | 68° |
| 2026-04-25 18:27 | 47.35246 | -52.70448 | 28350 ft | 480 kts | 68° |
| 2026-04-25 18:27 | 47.37230 | -52.61115 | 28342 ft | 480 kts | 68° |
| 2026-04-25 18:28 | 47.39218 | -52.51726 | 28340 ft | 480 kts | 68° |
| 2026-04-25 18:28 | 47.41196 | -52.42336 | 28348 ft | 479 kts | 68° |
| 2026-04-25 18:29 | 47.44137 | -52.28288 | 28352 ft | 476 kts | 68° |
| 2026-04-25 18:30 | 47.48009 | -52.09655 | 28326 ft | 473 kts | 68° |
| 2026-04-25 18:30 | 47.49933 | -52.00376 | 28322 ft | 471 kts | 67° |
| 2026-04-25 18:31 | 47.52199 | -51.91352 | 28318 ft | 467 kts | 64° |
| 2026-04-25 18:31 | 47.54553 | -51.82406 | 28314 ft | 464 kts | 64° |
| 2026-04-25 18:32 | 47.56869 | -51.73527 | 28304 ft | 461 kts | 64° |
| 2026-04-25 18:32 | 47.59156 | -51.64674 | 28349 ft | 460 kts | 64° |
| 2026-04-25 18:33 | 47.61436 | -51.55797 | 28307 ft | 462 kts | 64° |
| 2026-04-25 18:33 | 47.63715 | -51.46886 | 28288 ft | 462 kts | 64° |
| 2026-04-25 18:34 | 47.65990 | -51.37954 | 28286 ft | 463 kts | 64° |
| 2026-04-25 18:34 | 47.68261 | -51.28999 | 28285 ft | 464 kts | 64° |
| 2026-04-25 18:35 | 47.70526 | -51.20032 | 28277 ft | 464 kts | 64° |
| 2026-04-25 18:35 | 47.72785 | -51.11057 | 28271 ft | 464 kts | 64° |
| 2026-04-25 18:36 | 47.75040 | -51.02062 | 28280 ft | 465 kts | 65° |
| 2026-04-25 18:36 | 47.77289 | -50.93055 | 28268 ft | 465 kts | 65° |
| 2026-04-25 18:37 | 47.79533 | -50.84033 | 28265 ft | 465 kts | 65° |
| 2026-04-25 18:37 | 47.81768 | -50.75010 | 28301 ft | 465 kts | 65° |
| 2026-04-25 18:38 | 47.84000 | -50.65956 | 28264 ft | 467 kts | 66° |
| 2026-04-25 18:38 | 47.86235 | -50.56869 | 28266 ft | 468 kts | 66° |
| 2026-04-25 18:39 | 47.88462 | -50.47765 | 28257 ft | 468 kts | 66° |
| 2026-04-25 18:39 | 47.90671 | -50.38698 | 28262 ft | 469 kts | 66° |
| 2026-04-25 18:40 | 47.92891 | -50.29553 | 28253 ft | 469 kts | 66° |
| 2026-04-25 18:40 | 47.95116 | -50.20346 | 28250 ft | 469 kts | 67° |
| 2026-04-25 18:41 | 47.97323 | -50.11177 | 28245 ft | 470 kts | 67° |
| 2026-04-25 18:41 | 47.99403 | -50.02021 | 28243 ft | 468 kts | 75° |
| 2026-04-25 18:42 | 47.99633 | -49.97141 | 28234 ft | 479 kts | 92° |
| 2026-04-25 18:42 | 47.99466 | -49.95475 | 28235 ft | 481 kts | 98° |
| 2026-04-25 18:42 | 47.98731 | -49.82548 | 28253 ft | 474 kts | 79° |
| 2026-04-25 18:43 | 48.00124 | -49.72857 | 28246 ft | 481 kts | 73° |
| 2026-04-25 18:43 | 48.01771 | -49.63134 | 28238 ft | 485 kts | 75° |
| 2026-04-25 18:44 | 48.03301 | -49.53310 | 28242 ft | 486 kts | 76° |
| 2026-04-25 18:44 | 48.04722 | -49.43421 | 28234 ft | 487 kts | 76° |
| 2026-04-25 18:45 | 48.06101 | -49.33516 | 28243 ft | 486 kts | 77° |
| 2026-04-25 18:45 | 48.07469 | -49.23633 | 28242 ft | 485 kts | 77° |
| 2026-04-25 18:46 | 48.08835 | -49.13750 | 28252 ft | 485 kts | 78° |
| 2026-04-25 18:46 | 48.10193 | -49.03866 | 28247 ft | 485 kts | 78° |
| 2026-04-25 18:47 | 48.11543 | -48.93977 | 28261 ft | 485 kts | 78° |
| 2026-04-25 18:47 | 48.12886 | -48.84067 | 28264 ft | 485 kts | 78° |
| 2026-04-25 18:48 | 48.14220 | -48.74161 | 28266 ft | 485 kts | 78° |
| 2026-04-25 18:48 | 48.15546 | -48.64251 | 28265 ft | 486 kts | 78° |
| 2026-04-25 18:49 | 48.16864 | -48.54332 | 28271 ft | 485 kts | 78° |
| 2026-04-25 18:49 | 48.18173 | -48.44404 | 28272 ft | 485 kts | 79° |
| 2026-04-25 18:50 | 48.19479 | -48.34433 | 28279 ft | 490 kts | 79° |
| 2026-04-25 18:50 | 48.20788 | -48.24366 | 28279 ft | 493 kts | 79° |
| 2026-04-25 18:51 | 48.21654 | -48.17670 | 28277 ft | 495 kts | 79° |
| 2026-04-25 18:51 | 48.23386 | -48.04170 | 28281 ft | 495 kts | 80° |
| 2026-04-25 18:52 | 48.24677 | -47.94019 | 28292 ft | 495 kts | 80° |
| 2026-04-25 18:52 | 48.25958 | -47.83870 | 28291 ft | 495 kts | 81° |
| 2026-04-25 18:53 | 48.27227 | -47.73734 | 28298 ft | 493 kts | 80° |
| 2026-04-25 18:53 | 48.28487 | -47.63608 | 28290 ft | 494 kts | 82° |
| 2026-04-25 18:54 | 48.30369 | -47.48356 | 28314 ft | 496 kts | 82° |
| 2026-04-25 18:55 | 48.31613 | -47.38139 | 28314 ft | 498 kts | 82° |
| 2026-04-25 18:55 | 48.32854 | -47.27886 | 28319 ft | 499 kts | 81° |
| 2026-04-25 18:56 | 48.34090 | -47.17600 | 28321 ft | 501 kts | 83° |
| 2026-04-25 18:56 | 48.35316 | -47.07297 | 28330 ft | 502 kts | 82° |
| 2026-04-25 18:57 | 48.36538 | -46.96956 | 28339 ft | 503 kts | 81° |
| 2026-04-25 18:57 | 48.37755 | -46.86598 | 28344 ft | 503 kts | 83° |
| 2026-04-25 18:58 | 48.38952 | -46.76297 | 28351 ft | 503 kts | 82° |
| 2026-04-25 18:58 | 48.40744 | -46.60740 | 28358 ft | 503 kts | 82° |
| 2026-04-25 18:59 | 48.43096 | -46.39980 | 28372 ft | 503 kts | 83° |
| 2026-04-25 19:00 | 48.44838 | -46.24405 | 28381 ft | 502 kts | 82° |
| 2026-04-25 19:01 | 48.46559 | -46.08826 | 28394 ft | 503 kts | 84° |
| 2026-04-25 19:01 | 48.47697 | -45.98396 | 28396 ft | 505 kts | 84° |
| 2026-04-25 19:02 | 48.49391 | -45.82709 | 28400 ft | 506 kts | 84° |
| 2026-04-25 19:03 | 48.50699 | -45.70463 | 28400 ft | 506 kts | 84° |
| 2026-04-25 19:03 | 48.52171 | -45.56510 | 28418 ft | 506 kts | 84° |
| 2026-04-25 19:04 | 48.53628 | -45.42540 | 28395 ft | 506 kts | 85° |
| 2026-04-25 19:05 | 48.55783 | -45.21538 | 28428 ft | 507 kts | 85° |
| 2026-04-25 19:06 | 48.56847 | -45.11023 | 28442 ft | 507 kts | 86° |
| 2026-04-25 19:06 | 48.58427 | -44.95236 | 28458 ft | 507 kts | 86° |
| 2026-04-25 19:07 | 48.59986 | -44.79430 | 28464 ft | 507 kts | 86° |
| 2026-04-25 19:08 | 48.61523 | -44.63620 | 28448 ft | 507 kts | 87° |
| 2026-04-25 19:09 | 48.63369 | -44.44292 | 28476 ft | 508 kts | 87° |
| 2026-04-25 19:10 | 48.65023 | -44.26689 | 28487 ft | 509 kts | 87° |
| 2026-04-25 19:10 | 48.66006 | -44.16082 | 28465 ft | 509 kts | 88° |
| 2026-04-25 19:11 | 48.66978 | -44.05477 | 28492 ft | 509 kts | 88° |
| 2026-04-25 19:11 | 48.67942 | -43.94854 | 28495 ft | 510 kts | 88° |
| 2026-04-25 19:12 | 48.68898 | -43.84223 | 28497 ft | 510 kts | 88° |
| 2026-04-25 19:12 | 48.69844 | -43.73571 | 28504 ft | 511 kts | 88° |
| 2026-04-25 19:13 | 48.70782 | -43.62886 | 28509 ft | 513 kts | 89° |
| 2026-04-25 19:13 | 48.71713 | -43.52180 | 28515 ft | 513 kts | 89° |
| 2026-04-25 19:14 | 48.72636 | -43.41449 | 28512 ft | 514 kts | 89° |
| 2026-04-25 19:14 | 48.73548 | -43.30721 | 28506 ft | 514 kts | 89° |
| 2026-04-25 19:15 | 48.74451 | -43.19982 | 28509 ft | 514 kts | 89° |
| 2026-04-25 19:15 | 48.75345 | -43.09256 | 28486 ft | 513 kts | 90° |
| 2026-04-25 19:16 | 48.76225 | -42.98536 | 28521 ft | 513 kts | 90° |
| 2026-04-25 19:16 | 48.77094 | -42.87807 | 28528 ft | 513 kts | 90° |
| 2026-04-25 19:17 | 48.77956 | -42.77053 | 28524 ft | 514 kts | 90° |
| 2026-04-25 19:17 | 48.78810 | -42.66282 | 28525 ft | 515 kts | 91° |
| 2026-04-25 19:18 | 48.79654 | -42.55516 | 28533 ft | 514 kts | 91° |
| 2026-04-25 19:18 | 48.80488 | -42.44739 | 28535 ft | 514 kts | 91° |
| 2026-04-25 19:19 | 48.81312 | -42.33955 | 28480 ft | 515 kts | 91° |
| 2026-04-25 19:19 | 48.82125 | -42.23177 | 28533 ft | 514 kts | 92° |
| 2026-04-25 19:20 | 48.82928 | -42.12400 | 28496 ft | 514 kts | 92° |
| 2026-04-25 19:20 | 48.83715 | -42.01693 | 28538 ft | 513 kts | 92° |
| 2026-04-25 19:21 | 48.84497 | -41.90929 | 28549 ft | 513 kts | 92° |
| 2026-04-25 19:21 | 48.85650 | -41.74772 | 28543 ft | 513 kts | 92° |
| 2026-04-25 19:22 | 48.86406 | -41.64000 | 28544 ft | 513 kts | 92° |
| 2026-04-25 19:23 | 48.87520 | -41.47862 | 28550 ft | 512 kts | 92° |
| 2026-04-25 19:23 | 48.88610 | -41.31717 | 28549 ft | 512 kts | 93° |
| 2026-04-25 19:24 | 48.89325 | -41.20936 | 28550 ft | 513 kts | 93° |
| 2026-04-25 19:25 | 48.90729 | -40.99347 | 28549 ft | 513 kts | 93° |
| 2026-04-25 19:25 | 48.91415 | -40.88538 | 28550 ft | 514 kts | 93° |
| 2026-04-25 19:26 | 48.92092 | -40.77717 | 28506 ft | 514 kts | 94° |
| 2026-04-25 19:26 | 48.92760 | -40.66883 | 28557 ft | 515 kts | 94° |
| 2026-04-25 19:27 | 48.93678 | -40.51699 | 28506 ft | 517 kts | 94° |
| 2026-04-25 19:27 | 48.95167 | -40.26331 | 28567 ft | 519 kts | 94° |
| 2026-04-25 19:28 | 48.96411 | -40.04412 | 28534 ft | 521 kts | 94° |
| 2026-04-25 19:28 | 48.97443 | -39.82449 | 28595 ft | 520 kts | 95° |
| 2026-04-25 19:29 | 48.98301 | -39.60394 | 28581 ft | 523 kts | 95° |
| 2026-04-25 19:29 | 48.99165 | -39.38258 | 28644 ft | 524 kts | 95° |
| 2026-04-25 19:30 | 48.99986 | -39.16088 | 28622 ft | 526 kts | 95° |
| 2026-04-25 19:30 | 49.00766 | -38.93858 | 28600 ft | 527 kts | 95° |
| 2026-04-25 19:31 | 49.01503 | -38.71586 | 28582 ft | 526 kts | 95° |
| 2026-04-25 19:31 | 49.02198 | -38.49373 | 28620 ft | 524 kts | 95° |
| 2026-04-25 19:32 | 49.02846 | -38.27197 | 28640 ft | 524 kts | 95° |
| 2026-04-25 19:32 | 49.03252 | -38.12506 | 28644 ft | 525 kts | 95° |
| 2026-04-25 19:33 | 49.04017 | -37.82707 | 28516 ft | 527 kts | 95° |
| 2026-04-25 19:33 | 49.04286 | -37.71569 | 28623 ft | 526 kts | 95° |
| 2026-04-25 19:33 | 49.04538 | -37.60582 | 28675 ft | 526 kts | 95° |
| 2026-04-25 19:34 | 49.05019 | -37.38156 | 28582 ft | 531 kts | 95° |
| 2026-04-25 19:34 | 49.05466 | -37.15510 | 28654 ft | 532 kts | 95° |
| 2026-04-25 19:35 | 49.05861 | -36.93070 | 28618 ft | 534 kts | 95° |
| 2026-04-25 19:35 | 49.06221 | -36.70507 | 28632 ft | 523 kts | 95° |
| 2026-04-25 19:36 | 49.06524 | -36.48322 | 28738 ft | 524 kts | 95° |
| 2026-04-25 19:36 | 49.06785 | -36.26002 | 28688 ft | 527 kts | 95° |
| 2026-04-25 19:37 | 49.07008 | -36.03627 | 28635 ft | 529 kts | 95° |
| 2026-04-25 19:37 | 49.07103 | -35.92414 | 28771 ft | 527 kts | 95° |
| 2026-04-25 19:37 | 49.07188 | -35.81222 | 28753 ft | 528 kts | 95° |
| 2026-04-25 19:38 | 49.07323 | -35.58860 | 28824 ft | 527 kts | 95° |
| 2026-04-25 19:38 | 49.07414 | -35.36541 | 28761 ft | 527 kts | 95° |
| 2026-04-25 19:39 | 49.07463 | -35.14191 | 28800 ft | 525 kts | 95° |
| 2026-04-25 19:39 | 49.07467 | -34.92177 | 28923 ft | 520 kts | 95° |
| 2026-04-25 19:40 | 49.07453 | -34.81042 | 28759 ft | 529 kts | 95° |
| 2026-04-25 19:40 | 49.07431 | -34.69823 | 28793 ft | 527 kts | 95° |
| 2026-04-25 19:40 | 49.07356 | -34.47693 | 28803 ft | 520 kts | 95° |
| 2026-04-25 19:41 | 49.07232 | -34.25608 | 28823 ft | 523 kts | 95° |
| 2026-04-25 19:41 | 49.07127 | -34.10755 | 28868 ft | 523 kts | 95° |
| 2026-04-25 19:42 | 49.06861 | -33.81194 | 28827 ft | 526 kts | 95° |
| 2026-04-25 19:42 | 49.06611 | -33.58872 | 28845 ft | 526 kts | 95° |
| 2026-04-25 19:43 | 49.06319 | -33.36598 | 28882 ft | 526 kts | 95° |
| 2026-04-25 19:43 | 49.05982 | -33.14310 | 28884 ft | 525 kts | 95° |
| 2026-04-25 19:44 | 49.05603 | -32.92035 | 28879 ft | 525 kts | 95° |
| 2026-04-25 19:44 | 49.05182 | -32.69787 | 28891 ft | 525 kts | 96° |
| 2026-04-25 19:45 | 49.04718 | -32.47548 | 28915 ft | 524 kts | 96° |
| 2026-04-25 19:45 | 49.04213 | -32.25369 | 28923 ft | 522 kts | 96° |
| 2026-04-25 19:46 | 49.03667 | -32.03260 | 28940 ft | 522 kts | 96° |
| 2026-04-25 19:46 | 49.03078 | -31.81151 | 28941 ft | 521 kts | 96° |
| 2026-04-25 19:47 | 49.02450 | -31.59133 | 28944 ft | 520 kts | 96° |
| 2026-04-25 19:47 | 49.01781 | -31.37153 | 28983 ft | 518 kts | 96° |
| 2026-04-25 19:48 | 49.01434 | -31.26238 | 29105 ft | 515 kts | 96° |
| 2026-04-25 19:48 | 49.01076 | -31.15339 | 29086 ft | 515 kts | 96° |
| 2026-04-25 19:48 | 49.00326 | -30.93496 | 28956 ft | 518 kts | 96° |
| 2026-04-25 19:49 | 48.99808 | -30.79010 | 28970 ft | 517 kts | 96° |
| 2026-04-25 19:49 | 48.98712 | -30.49915 | 29087 ft | 515 kts | 97° |
| 2026-04-25 19:50 | 48.97390 | -30.17184 | 29038 ft | 518 kts | 97° |
| 2026-04-25 19:51 | 48.96688 | -29.98814 | 29017 ft | 520 kts | 93° |
| 2026-04-25 19:51 | 48.97602 | -29.76907 | 28985 ft | 524 kts | 89° |
| 2026-04-25 19:52 | 48.98533 | -29.54762 | 29050 ft | 524 kts | 89° |
| 2026-04-25 19:52 | 48.99377 | -29.32631 | 29118 ft | 525 kts | 89° |
| 2026-04-25 19:52 | 48.99788 | -29.21472 | 28911 ft | 529 kts | 89° |
| 2026-04-25 19:53 | 49.00191 | -29.10323 | 29075 ft | 526 kts | 89° |
| 2026-04-25 19:53 | 49.00964 | -28.87947 | 29113 ft | 526 kts | 89° |
| 2026-04-25 19:54 | 49.01687 | -28.65759 | 29064 ft | 528 kts | 89° |
| 2026-04-25 19:54 | 49.02379 | -28.43234 | 29068 ft | 529 kts | 89° |
| 2026-04-25 19:55 | 49.03021 | -28.20853 | 29075 ft | 529 kts | 89° |
| 2026-04-25 19:55 | 49.03617 | -27.98614 | 29076 ft | 529 kts | 89° |
| 2026-04-25 19:56 | 49.04173 | -27.76257 | 29086 ft | 527 kts | 89° |
| 2026-04-25 19:56 | 49.04684 | -27.53937 | 29083 ft | 527 kts | 89° |
| 2026-04-25 19:57 | 49.05153 | -27.31636 | 29081 ft | 526 kts | 90° |
| 2026-04-25 19:57 | 49.05577 | -27.09382 | 29084 ft | 525 kts | 90° |
| 2026-04-25 19:58 | 49.05957 | -26.87172 | 29079 ft | 524 kts | 89° |
| 2026-04-25 19:58 | 49.06296 | -26.64972 | 29140 ft | 524 kts | 90° |
| 2026-04-25 19:59 | 49.06591 | -26.42668 | 28925 ft | 529 kts | 89° |
| 2026-04-25 19:59 | 49.06724 | -26.31504 | 29095 ft | 525 kts | 89° |
| 2026-04-25 19:59 | 49.06845 | -26.20374 | 29100 ft | 526 kts | 89° |
| 2026-04-25 20:00 | 49.07056 | -25.97998 | 29113 ft | 528 kts | 89° |
| 2026-04-25 20:00 | 49.07224 | -25.75576 | 29097 ft | 528 kts | 89° |
| 2026-04-25 20:00 | 49.07292 | -25.64420 | 29237 ft | 525 kts | 89° |
| 2026-04-25 20:01 | 49.07395 | -25.42107 | 29068 ft | 530 kts | 89° |
| 2026-04-25 20:01 | 49.07430 | -25.30912 | 29191 ft | 527 kts | 89° |
| 2026-04-25 20:01 | 49.07455 | -25.19727 | 29127 ft | 528 kts | 89° |
| 2026-04-25 20:02 | 49.07471 | -24.97383 | 29197 ft | 525 kts | 89° |
| 2026-04-25 20:02 | 49.07463 | -24.86388 | 29083 ft | 526 kts | 89° |
| 2026-04-25 20:02 | 49.07445 | -24.75261 | 29094 ft | 524 kts | 89° |
| 2026-04-25 20:03 | 49.07375 | -24.52944 | 29134 ft | 520 kts | 89° |
| 2026-04-25 20:03 | 49.07266 | -24.30994 | 29078 ft | 521 kts | 89° |
| 2026-04-25 20:04 | 49.07113 | -24.08912 | 29132 ft | 521 kts | 89° |
| 2026-04-25 20:04 | 49.06918 | -23.86797 | 29122 ft | 521 kts | 89° |
| 2026-04-25 20:05 | 49.06680 | -23.64669 | 29113 ft | 522 kts | 89° |
| 2026-04-25 20:05 | 49.06399 | -23.42535 | 29072 ft | 523 kts | 88° |
| 2026-04-25 20:06 | 49.06078 | -23.20443 | 29216 ft | 519 kts | 88° |
| 2026-04-25 20:06 | 49.05902 | -23.09394 | 29108 ft | 522 kts | 88° |
| 2026-04-25 20:06 | 49.05715 | -22.98348 | 29120 ft | 521 kts | 88° |
| 2026-04-25 20:07 | 49.05308 | -22.76245 | 29123 ft | 521 kts | 89° |
| 2026-04-25 20:07 | 49.04859 | -22.54155 | 29129 ft | 521 kts | 88° |
| 2026-04-25 20:08 | 49.04370 | -22.32117 | 29115 ft | 519 kts | 88° |
| 2026-04-25 20:08 | 49.03841 | -22.10170 | 29142 ft | 518 kts | 88° |
| 2026-04-25 20:09 | 49.03273 | -21.88341 | 29157 ft | 514 kts | 89° |
| 2026-04-25 20:09 | 49.02668 | -21.66628 | 29225 ft | 512 kts | 89° |
| 2026-04-25 20:10 | 49.02023 | -21.44966 | 29197 ft | 511 kts | 89° |
| 2026-04-25 20:10 | 49.01339 | -21.23377 | 29205 ft | 508 kts | 89° |
| 2026-04-25 20:11 | 49.00620 | -21.01867 | 29127 ft | 506 kts | 91° |
| 2026-04-25 20:11 | 48.99864 | -20.80554 | 29104 ft | 502 kts | 91° |
| 2026-04-25 20:12 | 48.99077 | -20.59370 | 29243 ft | 499 kts | 93° |
| 2026-04-25 20:12 | 48.98669 | -20.48802 | 29104 ft | 501 kts | 93° |
| 2026-04-25 20:12 | 48.98534 | -20.45387 | 29097 ft | 501 kts | 93° |
| 2026-04-25 20:13 | 48.97394 | -20.17277 | 29128 ft | 499 kts | 93° |
| 2026-04-25 20:13 | 48.97044 | -19.96210 | 29119 ft | 499 kts | 84° |
| 2026-04-25 20:14 | 48.99565 | -19.75438 | 29143 ft | 499 kts | 79° |
| 2026-04-25 20:14 | 49.02084 | -19.54644 | 29145 ft | 499 kts | 81° |
| 2026-04-25 20:15 | 49.04527 | -19.33837 | 29136 ft | 499 kts | 81° |
| 2026-04-25 20:15 | 49.06937 | -19.13022 | 29144 ft | 499 kts | 81° |
| 2026-04-25 20:16 | 49.09313 | -18.92157 | 29143 ft | 499 kts | 82° |
| 2026-04-25 20:16 | 49.11653 | -18.71270 | 29144 ft | 499 kts | 82° |
| 2026-04-25 20:17 | 49.13955 | -18.50354 | 29151 ft | 500 kts | 83° |
| 2026-04-25 20:17 | 49.16221 | -18.29402 | 29149 ft | 500 kts | 83° |
| 2026-04-25 20:18 | 49.18448 | -18.08440 | 29150 ft | 500 kts | 83° |
| 2026-04-25 20:18 | 49.20637 | -17.87467 | 29162 ft | 499 kts | 83° |
| 2026-04-25 20:19 | 49.22786 | -17.66479 | 29166 ft | 500 kts | 84° |
| 2026-04-25 20:19 | 49.24903 | -17.45423 | 29162 ft | 501 kts | 84° |
| 2026-04-25 20:20 | 49.26966 | -17.24510 | 29167 ft | 501 kts | 84° |
| 2026-04-25 20:20 | 49.29011 | -17.03372 | 29147 ft | 502 kts | 85° |
| 2026-04-25 20:21 | 49.31021 | -16.82175 | 29147 ft | 504 kts | 85° |
| 2026-04-25 20:21 | 49.32997 | -16.60917 | 29143 ft | 504 kts | 85° |
| 2026-04-25 20:22 | 49.34286 | -16.46808 | 29154 ft | 505 kts | 85° |
| 2026-04-25 20:22 | 49.36826 | -16.18417 | 29195 ft | 505 kts | 86° |
| 2026-04-25 20:23 | 49.38688 | -15.97060 | 29201 ft | 505 kts | 86° |
| 2026-04-25 20:23 | 49.40514 | -15.75663 | 29164 ft | 506 kts | 86° |
| 2026-04-25 20:24 | 49.42299 | -15.54268 | 29234 ft | 505 kts | 86° |
| 2026-04-25 20:24 | 49.44049 | -15.32777 | 29685 ft | 508 kts | 86° |
| 2026-04-25 20:25 | 49.44909 | -15.22061 | 30572 ft | 504 kts | 87° |
| 2026-04-25 20:25 | 49.45410 | -15.15746 | 30998 ft | 504 kts | 87° |
| 2026-04-25 20:25 | 49.45832 | -15.10396 | 31337 ft | 504 kts | 87° |
| 2026-04-25 20:25 | 49.46251 | -15.05048 | 31659 ft | 504 kts | 87° |
| 2026-04-25 20:26 | 49.46666 | -14.99707 | 31996 ft | 504 kts | 87° |
| 2026-04-25 20:26 | 49.46967 | -14.94347 | 32328 ft | 501 kts | 92° |
| 2026-04-25 20:26 | 49.47010 | -14.88999 | 32625 ft | 500 kts | 95° |
| 2026-04-25 20:26 | 49.46940 | -14.83652 | 32922 ft | 501 kts | 96° |
| 2026-04-25 20:27 | 49.46953 | -14.78316 | 33138 ft | 502 kts | 88° |
| 2026-04-25 20:27 | 49.47742 | -14.73028 | 33155 ft | 509 kts | 76° |
| 2026-04-25 20:27 | 49.48808 | -14.67889 | 33139 ft | 498 kts | 77° |
| 2026-04-25 20:27 | 49.49628 | -14.62779 | 33124 ft | 488 kts | 84° |
| 2026-04-25 20:28 | 49.50258 | -14.52509 | 32948 ft | 478 kts | 94° |
| 2026-04-25 20:28 | 49.50268 | -14.47404 | 32546 ft | 478 kts | 95° |
| 2026-04-25 20:28 | 49.50211 | -14.42274 | 32054 ft | 481 kts | 96° |
| 2026-04-25 20:29 | 49.50147 | -14.37128 | 31603 ft | 483 kts | 95° |
| 2026-04-25 20:29 | 49.50101 | -14.31958 | 31177 ft | 484 kts | 95° |
| 2026-04-25 20:29 | 49.50076 | -14.26786 | 30760 ft | 484 kts | 95° |
| 2026-04-25 20:29 | 49.50063 | -14.21605 | 30334 ft | 484 kts | 94° |
| 2026-04-25 20:30 | 49.50053 | -14.16432 | 29796 ft | 484 kts | 94° |
| 2026-04-25 20:30 | 49.50042 | -14.11256 | 29351 ft | 485 kts | 94° |
| 2026-04-25 20:30 | 49.50025 | -14.06052 | 29208 ft | 487 kts | 94° |
| 2026-04-25 20:30 | 49.50000 | -14.00839 | 29220 ft | 486 kts | 95° |
| 2026-04-25 20:31 | 49.49515 | -13.90509 | 29204 ft | 484 kts | 99° |
| 2026-04-25 20:31 | 49.48882 | -13.80209 | 29211 ft | 483 kts | 99° |
| 2026-04-25 20:32 | 49.48252 | -13.69917 | 29210 ft | 483 kts | 99° |
| 2026-04-25 20:32 | 49.47630 | -13.59627 | 29214 ft | 483 kts | 99° |
| 2026-04-25 20:33 | 49.47005 | -13.49339 | 29209 ft | 484 kts | 99° |
| 2026-04-25 20:33 | 49.46586 | -13.42507 | 29219 ft | 485 kts | 99° |
| 2026-04-25 20:34 | 49.45723 | -13.28675 | 29222 ft | 487 kts | 99° |
| 2026-04-25 20:34 | 49.45067 | -13.18326 | 29220 ft | 486 kts | 99° |
| 2026-04-25 20:35 | 49.44406 | -13.08058 | 29213 ft | 486 kts | 100° |
| 2026-04-25 20:35 | 49.43728 | -12.97666 | 29212 ft | 487 kts | 100° |
| 2026-04-25 20:36 | 49.43158 | -12.89057 | 29232 ft | 488 kts | 100° |
| 2026-04-25 20:36 | 49.42349 | -12.76997 | 29223 ft | 489 kts | 100° |
| 2026-04-25 20:37 | 49.41759 | -12.68303 | 29223 ft | 488 kts | 100° |
| 2026-04-25 20:37 | 49.41046 | -12.57932 | 29206 ft | 488 kts | 100° |
| 2026-04-25 20:38 | 49.40324 | -12.47576 | 29231 ft | 488 kts | 100° |
| 2026-04-25 20:38 | 49.39592 | -12.37209 | 29231 ft | 489 kts | 100° |
| 2026-04-25 20:39 | 49.38855 | -12.26901 | 29231 ft | 489 kts | 101° |
| 2026-04-25 20:39 | 49.38226 | -12.18214 | 29234 ft | 489 kts | 101° |
| 2026-04-25 20:40 | 49.37344 | -12.06171 | 29221 ft | 489 kts | 101° |
| 2026-04-25 20:40 | 49.36572 | -11.95787 | 29234 ft | 490 kts | 101° |
| 2026-04-25 20:41 | 49.35791 | -11.85396 | 29218 ft | 491 kts | 101° |
| 2026-04-25 20:41 | 49.34999 | -11.74989 | 29234 ft | 492 kts | 101° |
| 2026-04-25 20:42 | 49.34197 | -11.64575 | 29230 ft | 492 kts | 101° |
| 2026-04-25 20:42 | 49.33385 | -11.54161 | 29233 ft | 492 kts | 101° |
| 2026-04-25 20:43 | 49.32562 | -11.43739 | 29237 ft | 493 kts | 101° |
| 2026-04-25 20:43 | 49.31730 | -11.33313 | 29236 ft | 493 kts | 101° |
| 2026-04-25 20:44 | 49.30890 | -11.22903 | 29237 ft | 492 kts | 101° |
| 2026-04-25 20:44 | 49.30040 | -11.12491 | 29227 ft | 493 kts | 101° |
| 2026-04-25 20:45 | 49.29177 | -11.02046 | 29239 ft | 495 kts | 101° |
| 2026-04-25 20:45 | 49.28302 | -10.91578 | 29233 ft | 496 kts | 101° |
| 2026-04-25 20:46 | 49.27420 | -10.81121 | 29240 ft | 495 kts | 101° |
| 2026-04-25 20:46 | 49.26528 | -10.70673 | 29221 ft | 495 kts | 101° |
| 2026-04-25 20:47 | 49.25625 | -10.60214 | 29240 ft | 496 kts | 101° |
| 2026-04-25 20:47 | 49.24710 | -10.49735 | 29245 ft | 497 kts | 101° |
| 2026-04-25 20:48 | 49.23784 | -10.39234 | 29239 ft | 498 kts | 101° |
| 2026-04-25 20:48 | 49.22850 | -10.28749 | 29248 ft | 497 kts | 101° |
| 2026-04-25 20:49 | 49.21907 | -10.18270 | 29229 ft | 496 kts | 101° |
| 2026-04-25 20:49 | 49.20962 | -10.07888 | 29243 ft | 496 kts | 101° |
| 2026-04-25 20:50 | 49.20002 | -9.97448 | 29248 ft | 496 kts | 101° |
| 2026-04-25 20:50 | 49.19033 | -9.87014 | 29245 ft | 496 kts | 101° |
| 2026-04-25 20:51 | 49.18054 | -9.76579 | 29229 ft | 496 kts | 101° |
| 2026-04-25 20:51 | 49.17063 | -9.66129 | 29239 ft | 497 kts | 101° |
| 2026-04-25 20:52 | 49.16226 | -9.57376 | 29249 ft | 497 kts | 101° |
| 2026-04-25 20:52 | 49.15054 | -9.45232 | 29241 ft | 497 kts | 102° |
| 2026-04-25 20:53 | 49.14035 | -9.34784 | 29241 ft | 497 kts | 102° |
| 2026-04-25 20:53 | 49.13008 | -9.24359 | 29247 ft | 496 kts | 102° |
| 2026-04-25 20:54 | 49.11971 | -9.13939 | 29248 ft | 496 kts | 102° |
| 2026-04-25 20:54 | 49.10927 | -9.03534 | 29247 ft | 496 kts | 102° |
| 2026-04-25 20:55 | 49.09872 | -8.93127 | 29247 ft | 496 kts | 102° |
| 2026-04-25 20:55 | 49.08808 | -8.82728 | 29236 ft | 496 kts | 102° |
| 2026-04-25 20:56 | 49.07735 | -8.72332 | 29248 ft | 497 kts | 102° |
| 2026-04-25 20:56 | 49.06648 | -8.61901 | 29249 ft | 498 kts | 102° |
| 2026-04-25 20:57 | 49.05553 | -8.51478 | 29247 ft | 498 kts | 102° |
| 2026-04-25 20:57 | 49.04449 | -8.41066 | 29248 ft | 497 kts | 102° |
| 2026-04-25 20:58 | 49.03337 | -8.30667 | 29240 ft | 497 kts | 102° |
| 2026-04-25 20:58 | 49.02214 | -8.20266 | 29247 ft | 498 kts | 102° |
| 2026-04-25 20:59 | 49.01082 | -8.09855 | 29241 ft | 499 kts | 102° |
| 2026-04-25 20:59 | 49.00064 | -7.99391 | 29248 ft | 501 kts | 97° |
| 2026-04-25 21:00 | 48.99982 | -7.92349 | 29247 ft | 503 kts | 90° |
| 2026-04-25 21:01 | 49.00311 | -7.72752 | 29246 ft | 503 kts | 91° |
| 2026-04-25 21:01 | 49.00412 | -7.62170 | 29244 ft | 503 kts | 91° |
| 2026-04-25 21:02 | 49.00151 | -7.51568 | 29250 ft | 499 kts | 100° |
| 2026-04-25 21:02 | 48.98599 | -7.41319 | 29243 ft | 495 kts | 111° |
| 2026-04-25 21:03 | 48.96219 | -7.31478 | 29244 ft | 495 kts | 113° |
| 2026-04-25 21:03 | 48.93820 | -7.21649 | 29247 ft | 496 kts | 113° |
| 2026-04-25 21:04 | 48.91441 | -7.11809 | 29243 ft | 496 kts | 112° |
| 2026-04-25 21:04 | 48.89068 | -7.01958 | 29240 ft | 496 kts | 112° |
| 2026-04-25 21:05 | 48.86692 | -6.92120 | 29228 ft | 497 kts | 112° |
| 2026-04-25 21:05 | 48.84300 | -6.82270 | 29240 ft | 498 kts | 112° |
| 2026-04-25 21:06 | 48.81892 | -6.72400 | 29241 ft | 499 kts | 112° |
| 2026-04-25 21:06 | 48.79472 | -6.62529 | 29236 ft | 499 kts | 113° |
| 2026-04-25 21:07 | 48.77047 | -6.52679 | 29236 ft | 498 kts | 112° |
| 2026-04-25 21:07 | 48.74637 | -6.42930 | 29239 ft | 497 kts | 112° |
| 2026-04-25 21:08 | 48.72206 | -6.33144 | 29239 ft | 496 kts | 112° |
| 2026-04-25 21:08 | 48.69766 | -6.23363 | 29240 ft | 496 kts | 112° |
| 2026-04-25 21:09 | 48.66092 | -6.08718 | 29228 ft | 497 kts | 112° |
| 2026-04-25 21:09 | 48.63633 | -5.98967 | 29235 ft | 497 kts | 112° |
| 2026-04-25 21:10 | 48.61160 | -5.89201 | 29234 ft | 497 kts | 112° |
| 2026-04-25 21:10 | 48.58681 | -5.79456 | 29232 ft | 497 kts | 112° |
| 2026-04-25 21:11 | 48.56194 | -5.69720 | 29230 ft | 497 kts | 112° |
| 2026-04-25 21:11 | 48.53696 | -5.59988 | 29227 ft | 497 kts | 112° |
| 2026-04-25 21:12 | 48.51195 | -5.50281 | 29219 ft | 497 kts | 112° |
| 2026-04-25 21:12 | 48.49515 | -5.43783 | 29227 ft | 497 kts | 112° |
| 2026-04-25 21:13 | 48.46164 | -5.30878 | 29232 ft | 497 kts | 112° |
| 2026-04-25 21:13 | 48.43635 | -5.21184 | 29227 ft | 497 kts | 112° |
| 2026-04-25 21:14 | 48.41101 | -5.11515 | 29223 ft | 497 kts | 112° |
| 2026-04-25 21:14 | 48.38558 | -5.01852 | 29228 ft | 496 kts | 112° |
| 2026-04-25 21:15 | 48.36026 | -4.92269 | 29216 ft | 496 kts | 112° |
| 2026-04-25 21:15 | 48.33468 | -4.82628 | 29203 ft | 496 kts | 112° |
| 2026-04-25 21:16 | 48.30904 | -4.73006 | 29207 ft | 496 kts | 113° |